Terminal Aerodrome Forecast
Issued by NWS

Current Version | Previous Version | Text Only | Print | Product List | Glossary On
Versions: 1 2 3 4 5 6 7 8 9 10 11 12 13 14 15 16 17 18 19
000
FTUS44 KLIX 050700 AAA
TAFMCB
TAF AMD
KMCB 050703Z 0507/0606 34010KT P6SM BKN005 OVC012
      TEMPO 0507/0509 3SM -SHRA BR OVC005
     FM051100 34012KT 2SM RA OVC005
     FM051500 36014KT P6SM OVC008
     FM060000 01012KT P6SM OVC025
     FM060300 01010KT P6SM BKN250=

USA.gov is the U.S. government's official web portal to all federal, state and local government web resources and services.